Time;durP1;ratioP1;P1;durP2;ratioP2;P2;SDS_P1;SDS_P2;PMS_P1;PMS_P2;Temp;Humidity;BMP_temperature;BMP_pressure;BME280_temperature;BME280_humidity;BME280_pressure;Samples;Min_cycle;Max_cycle;Signal;HPM_P1;HPM_P2
2023/01/19 00:01:17;;;;;;;0.57;0.50;;;11.80;72.10;;;;;;6212914;23;20076;-71
2023/01/19 00:03:43;;;;;;;0.80;0.70;;;11.80;72.10;;;;;;6212797;23;20063;-71
2023/01/19 00:06:08;;;;;;;1.50;0.80;;;11.70;72.10;;;;;;6213179;23;20009;-71
2023/01/19 00:08:34;;;;;;;2.45;0.88;;;11.70;72.00;;;;;;6214381;23;20083;-71
2023/01/19 00:11:00;;;;;;;1.20;0.85;;;11.70;72.10;;;;;;6188129;23;20005;-71
2023/01/19 00:13:26;;;;;;;1.23;0.68;;;11.80;72.10;;;;;;6213004;23;20001;-71
2023/01/19 00:15:51;;;;;;;1.70;0.65;;;11.70;72.00;;;;;;6212808;23;20051;-71
2023/01/19 00:18:17;;;;;;;1.27;0.82;;;11.70;72.10;;;;;;6212904;23;20001;-71
2023/01/19 00:20:44;;;;;;;1.55;0.90;;;11.70;72.10;;;;;;6215138;23;20000;-71
2023/01/19 00:23:10;;;;;;;1.63;0.80;;;11.70;72.10;;;;;;6214674;23;20436;-71
2023/01/19 00:25:41;;;;;;;1.42;0.75;;;11.70;72.10;;;;;;6216206;23;20001;-71
2023/01/19 00:28:10;;;;;;;1.65;0.95;;;11.70;72.20;;;;;;6190971;23;20433;-71
2023/01/19 00:30:37;;;;;;;1.65;0.50;;;11.70;72.10;;;;;;6189737;23;20004;-71
2023/01/19 00:33:02;;;;;;;2.85;0.80;;;11.70;72.10;;;;;;6214464;23;20004;-71
2023/01/19 00:35:28;;;;;;;2.22;0.80;;;11.70;72.10;;;;;;6214649;23;20086;-71
2023/01/19 00:37:55;;;;;;;0.95;0.90;;;11.70;72.10;;;;;;6216080;23;20055;-71
2023/01/19 00:40:21;;;;;;;1.77;0.77;;;11.70;72.10;;;;;;6189762;23;20023;-71
2023/01/19 00:42:47;;;;;;;2.85;0.70;;;11.70;72.10;;;;;;6216083;23;20371;-71
2023/01/19 00:45:20;;;;;;;0.98;0.55;;;11.70;72.10;;;;;;6216082;23;20011;-71
2023/01/19 00:47:46;;;;;;;0.75;0.45;;;11.80;73.10;;;;;;6189260;23;20011;-71
2023/01/19 00:50:13;;;;;;;1.13;1.00;;;11.70;72.10;;;;;;6189750;23;20008;-71
2023/01/19 00:52:39;;;;;;;1.20;0.90;;;11.70;72.20;;;;;;6214388;23;20000;-71
2023/01/19 00:55:14;;;;;;;1.15;0.63;;;11.70;72.10;;;;;;6189566;23;20376;-71
2023/01/19 00:57:40;;;;;;;1.70;0.70;;;11.70;72.10;;;;;;6191280;23;20000;-71
2023/01/19 01:00:08;;;;;;;0.82;0.70;;;11.70;72.10;;;;;;6214189;23;20414;-71
2023/01/19 01:02:33;;;;;;;1.13;0.68;;;11.70;72.20;;;;;;6214453;23;20384;-71
2023/01/19 01:05:01;;;;;;;1.00;0.60;;;11.70;72.20;;;;;;6215931;23;20038;-71
2023/01/19 01:07:27;;;;;;;1.08;0.63;;;11.70;72.20;;;;;;6214512;23;20436;-71
2023/01/19 01:09:53;;;;;;;1.20;0.75;;;11.70;72.20;;;;;;6214292;23;20008;-71
2023/01/19 01:12:18;;;;;;;1.05;0.73;;;11.70;72.20;;;;;;6215824;23;20011;-71
2023/01/19 01:14:44;;;;;;;0.70;0.60;;;11.70;72.20;;;;;;6214089;23;20055;-71
2023/01/19 01:17:10;;;;;;;0.93;0.68;;;11.70;72.10;;;;;;6214341;23;20479;-71
2023/01/19 01:19:42;;;;;;;2.35;0.73;;;11.70;72.10;;;;;;6214461;23;20340;-71
2023/01/19 01:22:08;;;;;;;1.10;0.60;;;11.70;72.10;;;;;;6215762;23;20082;-71
2023/01/19 01:24:34;;;;;;;1.35;0.60;;;11.70;72.20;;;;;;6213973;23;20027;-71
2023/01/19 01:26:59;;;;;;;0.77;0.60;;;11.70;72.10;;;;;;6214305;23;20075;-71
2023/01/19 01:29:25;;;;;;;1.20;0.60;;;11.70;72.10;;;;;;6214200;23;20054;-71
2023/01/19 01:31:51;;;;;;;1.38;0.80;;;11.70;72.10;;;;;;6189107;23;20096;-71
2023/01/19 01:34:16;;;;;;;1.52;0.60;;;11.70;72.10;;;;;;6215661;23;20051;-71
2023/01/19 01:36:43;;;;;;;0.73;0.60;;;11.70;72.20;;;;;;6213933;23;19997;-71
2023/01/19 01:39:08;;;;;;;1.65;0.57;;;11.70;72.20;;;;;;6215593;23;20451;-71
2023/01/19 01:41:34;;;;;;;2.65;0.90;;;11.70;72.20;;;;;;6214138;23;20001;-71
2023/01/19 01:44:01;;;;;;;1.33;0.68;;;11.70;72.20;;;;;;6215244;23;20437;-71
2023/01/19 01:46:28;;;;;;;1.08;0.63;;;11.70;72.10;;;;;;6214158;23;20000;-71
2023/01/19 01:49:05;;;;;;;0.80;0.63;;;11.70;72.10;;;;;;6189176;23;20008;-71
2023/01/19 01:51:39;;;;;;;0.60;0.50;;;11.70;72.10;;;;;;6215611;23;20001;-71
2023/01/19 01:54:08;;;;;;;0.85;0.40;;;11.70;72.00;;;;;;6189432;23;20007;-71
2023/01/19 01:56:36;;;;;;;0.50;0.43;;;11.70;72.00;;;;;;6215392;23;20368;-71
2023/01/19 01:59:05;;;;;;;0.90;0.40;;;11.70;72.00;;;;;;6188893;23;20480;-71
2023/01/19 02:04:15;;;;;;;1.13;0.63;;;11.70;72.00;;;;;;6214202;23;20016;-71
2023/01/19 02:14:54;;;;;;;0.85;0.50;;;11.70;71.70;;;;;;6214078;23;20467;-71
2023/01/19 02:17:19;;;;;;;1.10;0.50;;;11.70;71.80;;;;;;6215099;23;20001;-71
2023/01/19 02:19:45;;;;;;;1.40;0.50;;;11.70;71.80;;;;;;6213784;23;20000;-71
2023/01/19 02:22:18;;;;;;;1.13;0.52;;;11.70;71.80;;;;;;6213734;23;19996;-71
2023/01/19 02:24:44;;;;;;;0.65;0.47;;;11.70;71.90;;;;;;6213564;23;20441;-71
2023/01/19 02:27:10;;;;;;;2.20;0.70;;;11.70;71.80;;;;;;6188380;23;20051;-71
2023/01/19 02:29:36;;;;;;;1.17;0.63;;;11.70;71.80;;;;;;6188946;23;20441;-71
2023/01/19 02:32:02;;;;;;;0.95;0.60;;;11.70;71.80;;;;;;6188614;23;19997;-71
2023/01/19 02:34:27;;;;;;;1.40;0.60;;;11.70;71.80;;;;;;6213489;23;20428;-71
2023/01/19 02:36:57;;;;;;;0.98;0.63;;;11.70;71.80;;;;;;6213517;23;20004;-71
2023/01/19 02:39:49;;;;;;;1.65;0.55;;;11.70;71.80;;;;;;6188257;23;20384;-71
2023/01/19 02:42:29;;;;;;;2.10;0.60;;;11.70;71.70;;;;;;6197069;23;20008;-71
2023/01/19 02:44:56;;;;;;;1.13;0.52;;;11.70;71.80;;;;;;6191268;23;20011;-71
2023/01/19 02:47:22;;;;;;;2.35;0.50;;;11.70;71.70;;;;;;6188809;23;20075;-71
2023/01/19 02:49:58;;;;;;;0.77;0.63;;;11.70;71.60;;;;;;6213165;23;20032;-71
2023/01/19 02:52:23;;;;;;;1.05;0.50;;;11.70;71.30;;;;;;6214931;23;20428;-71
2023/01/19 02:54:55;;;;;;;1.02;0.52;;;11.70;71.60;;;;;;6188565;23;19997;-71
2023/01/19 02:57:33;;;;;;;1.10;0.43;;;11.70;71.70;;;;;;6214609;23;20000;-71
2023/01/19 03:00:31;;;;;;;0.60;0.52;;;11.70;71.70;;;;;;6213415;23;20384;-71
2023/01/19 03:03:15;;;;;;;0.63;0.60;;;11.70;71.50;;;;;;6093485;23;20031;-71
2023/01/19 03:06:02;;;;;;;3.05;0.70;;;11.70;71.60;;;;;;6093881;23;20015;-71
2023/01/19 03:08:33;;;;;;;1.80;0.60;;;11.70;71.60;;;;;;6093818;23;20010;-71
2023/01/19 03:11:09;;;;;;;1.80;0.50;;;11.60;71.60;;;;;;6069434;23;20014;-71
2023/01/19 03:13:54;;;;;;;1.00;0.50;;;11.70;71.60;;;;;;6069907;23;20014;-71
2023/01/19 03:16:33;;;;;;;1.33;0.50;;;11.70;71.60;;;;;;6069768;23;20007;-71
2023/01/19 03:19:18;;;;;;;1.55;0.47;;;11.70;71.70;;;;;;6048225;23;20006;-71
2023/01/19 03:21:46;;;;;;;1.30;0.30;;;11.70;71.60;;;;;;6072158;23;20350;-71
2023/01/19 03:24:12;;;;;;;0.52;0.50;;;11.70;71.70;;;;;;6069945;23;20123;-71
2023/01/19 03:26:41;;;;;;;0.50;0.50;;;11.70;71.70;;;;;;6069491;23;20013;-71
2023/01/19 03:29:07;;;;;;;1.00;0.40;;;11.70;71.70;;;;;;6070158;23;20065;-71
2023/01/19 03:31:33;;;;;;;0.60;0.50;;;11.70;71.60;;;;;;6069778;23;20014;-71
2023/01/19 03:34:04;;;;;;;0.70;0.60;;;11.70;71.70;;;;;;6069524;23;20093;-71
2023/01/19 03:36:43;;;;;;;0.70;0.43;;;11.70;71.70;;;;;;6069702;23;20006;-71
2023/01/19 03:39:09;;;;;;;1.23;0.60;;;11.70;71.70;;;;;;6098704;23;20012;-71
2023/01/19 03:41:35;;;;;;;0.63;0.50;;;11.70;71.60;;;;;;6213028;23;20004;-71
2023/01/19 03:44:01;;;;;;;0.65;0.40;;;11.70;71.70;;;;;;6188211;23;20008;-71
2023/01/19 03:46:26;;;;;;;0.77;0.38;;;11.70;71.70;;;;;;6213179;23;20005;-71
2023/01/19 03:48:52;;;;;;;0.80;0.60;;;11.70;71.70;;;;;;6188028;23;20463;-71
2023/01/19 03:51:18;;;;;;;1.15;0.52;;;11.70;71.70;;;;;;6188159;23;20011;-71
2023/01/19 03:53:45;;;;;;;0.88;0.50;;;11.70;71.70;;;;;;6188073;23;20436;-71
2023/01/19 03:56:18;;;;;;;1.02;0.32;;;11.70;71.70;;;;;;6189332;23;20012;-71
2023/01/19 03:58:45;;;;;;;1.15;0.47;;;11.70;71.70;;;;;;6190460;23;20078;-71
2023/01/19 04:01:10;;;;;;;0.52;0.30;;;11.70;71.70;;;;;;6215045;23;19997;-71
2023/01/19 04:03:36;;;;;;;1.05;0.55;;;11.70;71.70;;;;;;6216702;23;20008;-71
2023/01/19 04:06:02;;;;;;;0.38;0.30;;;11.70;71.70;;;;;;6215090;23;20010;-71
2023/01/19 04:08:27;;;;;;;0.47;0.47;;;11.70;71.70;;;;;;6216109;23;20001;-71
2023/01/19 04:10:53;;;;;;;1.27;0.40;;;11.70;71.70;;;;;;6214922;23;20008;-71
2023/01/19 04:13:19;;;;;;;1.35;0.43;;;11.70;71.80;;;;;;6214857;23;20007;-71
2023/01/19 04:15:44;;;;;;;1.48;0.60;;;11.70;71.80;;;;;;6214762;23;20367;-71
2023/01/19 04:18:10;;;;;;;0.95;0.40;;;11.70;71.70;;;;;;6214924;23;20314;-71
2023/01/19 04:20:36;;;;;;;0.95;0.50;;;11.70;71.70;;;;;;6189907;23;19997;-71
2023/01/19 04:23:01;;;;;;;0.80;0.30;;;11.70;71.70;;;;;;6214389;23;20527;-71
2023/01/19 04:25:27;;;;;;;1.00;0.63;;;11.70;71.70;;;;;;6214920;23;20055;-71
2023/01/19 04:27:54;;;;;;;0.40;0.35;;;11.70;71.80;;;;;;6189646;23;20087;-71
2023/01/19 04:30:19;;;;;;;0.88;0.40;;;11.70;71.70;;;;;;6216252;23;20000;-71
2023/01/19 04:32:45;;;;;;;0.75;0.50;;;11.70;71.70;;;;;;6214709;23;20013;-71
2023/01/19 04:35:11;;;;;;;0.68;0.20;;;11.70;71.80;;;;;;6216160;23;20007;-71
2023/01/19 04:37:36;;;;;;;0.55;0.38;;;11.70;71.70;;;;;;6214565;23;19997;-71
2023/01/19 04:40:02;;;;;;;0.50;0.40;;;11.70;71.70;;;;;;6214618;23;19996;-71
2023/01/19 04:42:28;;;;;;;0.95;0.47;;;11.70;71.70;;;;;;6216281;23;20000;-71
2023/01/19 04:44:54;;;;;;;0.90;0.43;;;11.70;71.70;;;;;;6216132;23;20032;-71
2023/01/19 04:47:19;;;;;;;0.85;0.40;;;11.70;71.70;;;;;;6216023;23;19996;-71
2023/01/19 04:49:45;;;;;;;0.43;0.43;;;11.70;71.70;;;;;;6215966;23;20001;-71
2023/01/19 04:52:10;;;;;;;1.65;0.45;;;11.70;71.70;;;;;;6215660;23;20011;-71
2023/01/19 04:54:36;;;;;;;2.45;0.40;;;11.70;71.70;;;;;;6215826;23;20083;-71
2023/01/19 04:57:02;;;;;;;0.50;0.32;;;11.70;71.80;;;;;;6214553;23;19996;-71
2023/01/19 04:59:27;;;;;;;0.30;0.30;;;11.70;71.80;;;;;;6214679;23;20444;-71
2023/01/19 05:01:53;;;;;;;0.63;0.20;;;11.70;71.70;;;;;;6214365;23;20007;-71
2023/01/19 05:04:18;;;;;;;0.65;0.40;;;11.70;71.80;;;;;;6215927;23;20005;-71
2023/01/19 05:06:44;;;;;;;1.45;0.40;;;11.70;71.70;;;;;;6215397;23;20012;-71
2023/01/19 05:09:12;;;;;;;0.82;0.40;;;11.70;71.80;;;;;;6214530;23;20337;-71
2023/01/19 05:11:38;;;;;;;0.93;0.50;;;11.70;71.70;;;;;;6214427;23;20004;-71
2023/01/19 05:14:04;;;;;;;0.88;0.50;;;11.70;71.80;;;;;;6214268;23;20051;-71
2023/01/19 05:16:30;;;;;;;0.32;0.32;;;11.70;71.80;;;;;;6215623;23;20005;-71
2023/01/19 05:18:55;;;;;;;1.42;0.40;;;11.70;71.80;;;;;;6214242;23;20007;-71
2023/01/19 05:21:21;;;;;;;0.30;0.30;;;11.70;71.80;;;;;;6214130;23;20333;-71
2023/01/19 05:23:46;;;;;;;0.30;0.20;;;11.70;71.80;;;;;;6215555;23;20083;-71
2023/01/19 05:26:12;;;;;;;0.63;0.32;;;11.70;71.80;;;;;;6215697;23;20519;-71
2023/01/19 05:28:38;;;;;;;1.30;0.50;;;11.70;71.80;;;;;;6214089;23;20388;-71
2023/01/19 05:31:03;;;;;;;0.30;0.30;;;11.70;71.90;;;;;;6214053;23;20396;-71
2023/01/19 05:33:29;;;;;;;0.63;0.43;;;11.70;71.80;;;;;;6214233;23;20000;-71
2023/01/19 05:35:55;;;;;;;0.40;0.40;;;11.70;71.80;;;;;;6213693;23;20001;-71
2023/01/19 05:38:21;;;;;;;1.83;0.50;;;11.70;71.80;;;;;;6215506;23;20337;-71
2023/01/19 05:40:46;;;;;;;0.50;0.30;;;11.70;71.80;;;;;;6214173;23;19997;-71
2023/01/19 05:43:13;;;;;;;0.60;0.40;;;11.70;71.80;;;;;;6215468;23;20000;-71
2023/01/19 05:45:38;;;;;;;0.95;0.57;;;11.70;71.80;;;;;;6214152;23;20054;-71
2023/01/19 05:48:05;;;;;;;0.68;0.30;;;11.70;71.90;;;;;;6215391;23;20009;-71
2023/01/19 05:50:31;;;;;;;0.45;0.20;;;11.70;71.80;;;;;;6215114;23;20071;-71
2023/01/19 05:52:57;;;;;;;0.40;0.30;;;11.70;71.80;;;;;;6189074;23;20446;-71
2023/01/19 05:55:23;;;;;;;0.30;0.20;;;11.70;71.80;;;;;;6214165;23;20336;-71
2023/01/19 05:57:48;;;;;;;1.75;0.50;;;11.70;71.80;;;;;;6215412;23;20004;-71
2023/01/19 06:00:14;;;;;;;0.40;0.30;;;11.70;71.80;;;;;;6213916;23;19996;-71
2023/01/19 06:02:40;;;;;;;1.23;0.40;;;11.70;71.80;;;;;;6215240;23;20063;-71
2023/01/19 06:05:06;;;;;;;1.05;0.50;;;11.70;71.80;;;;;;6214986;23;19997;-71
2023/01/19 06:07:31;;;;;;;0.45;0.40;;;11.70;72.80;;;;;;6213878;23;20001;-71
2023/01/19 06:09:57;;;;;;;0.82;0.40;;;11.70;71.80;;;;;;6213779;23;20441;-71
2023/01/19 06:12:23;;;;;;;0.47;0.30;;;11.70;71.80;;;;;;6215140;23;20001;-71
2023/01/19 06:14:48;;;;;;;1.48;0.43;;;11.70;71.90;;;;;;6188834;23;20027;-71
2023/01/19 06:17:14;;;;;;;0.95;0.40;;;11.70;71.90;;;;;;6214962;23;20001;-71
2023/01/19 06:19:40;;;;;;;0.30;0.30;;;11.70;71.80;;;;;;6188351;23;20492;-71
2023/01/19 06:22:06;;;;;;;1.05;0.40;;;11.70;71.80;;;;;;6213803;23;20007;-71
2023/01/19 06:24:31;;;;;;;1.17;0.43;;;11.70;71.80;;;;;;6188660;23;20091;-71
2023/01/19 06:26:59;;;;;;;1.50;0.57;;;11.70;71.80;;;;;;6214963;23;20000;-71
2023/01/19 06:29:25;;;;;;;0.50;0.32;;;11.70;71.80;;;;;;6213650;23;20005;-71
2023/01/19 06:31:50;;;;;;;1.80;0.50;;;11.70;71.80;;;;;;6215070;23;20123;-71
2023/01/19 06:34:17;;;;;;;0.90;0.40;;;11.70;71.80;;;;;;6188324;23;20463;-71
2023/01/19 06:36:43;;;;;;;1.35;0.40;;;11.70;71.80;;;;;;6215092;23;20001;-71
2023/01/19 06:39:09;;;;;;;2.75;0.57;;;11.70;71.90;;;;;;6214861;23;20024;-71
2023/01/19 06:41:35;;;;;;;0.95;0.38;;;11.70;71.80;;;;;;6214940;23;20107;-71
2023/01/19 06:44:01;;;;;;;0.30;0.30;;;11.70;71.80;;;;;;6163566;23;20016;-71
2023/01/19 06:46:26;;;;;;;0.45;0.45;;;11.70;71.80;;;;;;6213494;23;20077;-71
2023/01/19 06:48:53;;;;;;;0.68;0.50;;;11.70;71.80;;;;;;6213257;23;20448;-71
2023/01/19 06:51:19;;;;;;;0.98;0.32;;;11.70;71.80;;;;;;6188576;23;20012;-71
2023/01/19 06:53:44;;;;;;;0.68;0.30;;;11.70;72.10;;;;;;6214732;23;20384;-71
2023/01/19 06:56:10;;;;;;;0.25;0.25;;;11.70;71.90;;;;;;6214839;23;20001;-71
2023/01/19 06:58:36;;;;;;;0.63;0.40;;;11.70;71.80;;;;;;6214848;23;20435;-71
2023/01/19 07:01:02;;;;;;;0.25;0.25;;;11.70;71.80;;;;;;6213225;23;20073;-71
2023/01/19 07:03:28;;;;;;;1.23;0.40;;;11.70;71.80;;;;;;6188187;23;20043;-71
2023/01/19 07:05:55;;;;;;;1.13;0.43;;;11.70;71.80;;;;;;6188385;23;20000;-71
2023/01/19 07:08:21;;;;;;;1.40;0.52;;;11.70;71.80;;;;;;6213394;23;20005;-71
2023/01/19 07:10:47;;;;;;;0.70;0.47;;;11.70;71.80;;;;;;6213277;23;20084;-71
2023/01/19 07:13:13;;;;;;;0.30;0.30;;;11.70;71.80;;;;;;6213057;23;20059;-71
2023/01/19 07:15:38;;;;;;;0.65;0.30;;;11.70;71.80;;;;;;6188205;23;20007;-71
2023/01/19 07:18:08;;;;;;;0.35;0.35;;;11.70;71.80;;;;;;6213031;23;20047;-71
2023/01/19 07:20:34;;;;;;;1.70;0.40;;;11.70;71.80;;;;;;6214755;23;20460;-71
2023/01/19 07:23:00;;;;;;;0.40;0.30;;;11.70;71.80;;;;;;6213032;23;20017;-71
2023/01/19 07:25:25;;;;;;;1.38;0.30;;;11.70;71.80;;;;;;6214789;23;20004;-71
2023/01/19 07:27:55;;;;;;;1.25;0.40;;;11.70;71.80;;;;;;6214825;23;20075;-71
2023/01/19 07:30:20;;;;;;;1.02;0.38;;;11.70;71.80;;;;;;6214780;23;20011;-71
2023/01/19 07:32:46;;;;;;;0.73;0.30;;;11.70;71.80;;;;;;6215149;23;20028;-71
2023/01/19 07:35:12;;;;;;;0.55;0.32;;;11.70;71.80;;;;;;6216644;23;19996;-71
2023/01/19 07:37:37;;;;;;;0.50;0.20;;;11.70;71.80;;;;;;6216750;23;20007;-71
2023/01/19 07:40:03;;;;;;;0.45;0.30;;;11.70;71.80;;;;;;6190312;23;20004;-71
2023/01/19 07:42:29;;;;;;;0.73;0.50;;;11.70;71.80;;;;;;6215181;23;20004;-71
2023/01/19 07:44:55;;;;;;;0.95;0.45;;;11.70;71.80;;;;;;6215310;23;20001;-71
2023/01/19 07:47:20;;;;;;;0.95;0.47;;;11.70;71.80;;;;;;6216516;23;20001;-71
2023/01/19 07:49:46;;;;;;;0.55;0.52;;;11.70;71.80;;;;;;6216494;23;20067;-71
2023/01/19 07:52:12;;;;;;;0.90;0.35;;;11.70;71.80;;;;;;6215251;23;20072;-71
2023/01/19 07:54:37;;;;;;;0.70;0.50;;;11.70;71.80;;;;;;6216616;23;20000;-71
2023/01/19 07:57:03;;;;;;;1.10;0.50;;;11.70;71.90;;;;;;6215100;23;20001;-71
2023/01/19 07:59:29;;;;;;;1.15;0.40;;;11.70;71.80;;;;;;6216495;23;20072;-71
2023/01/19 08:01:58;;;;;;;0.75;0.40;;;11.70;71.80;;;;;;6190081;23;19993;-71
2023/01/19 08:04:27;;;;;;;0.38;0.30;;;11.70;71.80;;;;;;6216555;23;20448;-71
2023/01/19 08:06:52;;;;;;;0.45;0.40;;;11.60;71.80;;;;;;6189973;23;20062;-71
2023/01/19 08:09:18;;;;;;;0.52;0.35;;;11.70;71.80;;;;;;6189790;23;20001;-71
2023/01/19 08:11:43;;;;;;;1.10;0.47;;;11.70;71.80;;;;;;6215106;23;20078;-71
2023/01/19 08:14:09;;;;;;;1.35;0.40;;;11.70;71.80;;;;;;6189941;23;20459;-71
2023/01/19 08:16:35;;;;;;;1.42;0.50;;;11.70;71.80;;;;;;6214687;23;20009;-71
2023/01/19 08:19:02;;;;;;;0.47;0.32;;;11.70;71.80;;;;;;6214880;23;20453;-71
2023/01/19 08:21:28;;;;;;;1.00;0.50;;;11.70;71.80;;;;;;6214844;23;20001;-71
2023/01/19 08:23:54;;;;;;;1.08;0.57;;;11.70;71.80;;;;;;6189657;23;20051;-71
2023/01/19 08:26:28;;;;;;;0.60;0.38;;;11.70;71.80;;;;;;6214801;23;20459;-71
2023/01/19 08:28:55;;;;;;;1.05;0.47;;;11.70;71.80;;;;;;6190376;23;20004;-71
2023/01/19 08:31:20;;;;;;;0.63;0.40;;;11.70;71.90;;;;;;6189644;23;20340;-71
2023/01/19 08:33:46;;;;;;;2.53;0.50;;;11.70;71.80;;;;;;6189633;23;20001;-71
2023/01/19 08:36:11;;;;;;;0.60;0.50;;;11.70;71.90;;;;;;6216129;23;20000;-71
2023/01/19 08:38:40;;;;;;;0.52;0.40;;;11.70;71.90;;;;;;6216117;23;20318;-71
2023/01/19 08:41:05;;;;;;;1.60;0.70;;;11.70;71.90;;;;;;6214192;23;20492;-71
2023/01/19 08:43:31;;;;;;;0.75;0.43;;;11.70;71.80;;;;;;6216157;23;20039;-71
2023/01/19 08:45:57;;;;;;;0.88;0.60;;;11.70;71.80;;;;;;6215838;23;20009;-71
2023/01/19 08:48:22;;;;;;;1.40;0.63;;;11.70;71.90;;;;;;6216088;23;20344;-71
2023/01/19 08:50:48;;;;;;;1.55;0.50;;;11.60;71.80;;;;;;6214664;23;20532;-71
2023/01/19 08:53:14;;;;;;;0.50;0.47;;;11.70;71.90;;;;;;6214263;23;20511;-71
2023/01/19 08:55:40;;;;;;;1.63;0.60;;;11.60;71.80;;;;;;6216096;23;20007;-67
2023/01/19 08:58:07;;;;;;;0.80;0.55;;;11.70;71.90;;;;;;6214588;23;20086;-67
2023/01/19 09:00:33;;;;;;;1.45;0.60;;;11.70;71.90;;;;;;6214410;23;20001;-67
2023/01/19 09:03:02;;;;;;;0.98;0.73;;;11.60;71.80;;;;;;6214451;23;20437;-67
2023/01/19 09:05:34;;;;;;;0.73;0.50;;;11.70;71.90;;;;;;6190353;23;20071;-67
2023/01/19 09:08:01;;;;;;;2.25;0.90;;;11.70;71.90;;;;;;6214311;23;20005;-67
2023/01/19 09:10:30;;;;;;;1.27;0.80;;;11.70;71.90;;;;;;6189780;23;20437;-67
2023/01/19 09:12:56;;;;;;;0.88;0.60;;;11.60;71.80;;;;;;6190180;23;20085;-67
2023/01/19 09:15:22;;;;;;;1.13;0.73;;;11.60;71.80;;;;;;6214197;23;20079;-67
2023/01/19 09:17:47;;;;;;;0.85;0.52;;;11.70;72.90;;;;;;6215788;23;20055;-67
2023/01/19 09:20:13;;;;;;;1.00;0.63;;;11.70;71.90;;;;;;6214289;23;20052;-67
2023/01/19 09:22:39;;;;;;;1.90;0.98;;;11.70;71.90;;;;;;6215426;23;20020;-67
2023/01/19 09:25:06;;;;;;;2.67;1.13;;;11.70;72.90;;;;;;6215642;23;20005;-67
2023/01/19 09:27:31;;;;;;;1.13;0.95;;;11.70;71.90;;;;;;6189333;23;20429;-67
2023/01/19 09:29:57;;;;;;;1.80;0.90;;;11.70;71.90;;;;;;6215530;23;20019;-67
2023/01/19 09:32:23;;;;;;;1.77;1.08;;;11.60;71.80;;;;;;6215524;23;20078;-67
2023/01/19 09:34:48;;;;;;;2.22;0.73;;;11.70;71.90;;;;;;6214120;23;20031;-66
2023/01/19 09:37:15;;;;;;;1.13;0.82;;;11.70;71.90;;;;;;6214184;23;20344;-67
2023/01/19 09:39:41;;;;;;;2.58;0.90;;;11.70;72.00;;;;;;6215670;23;19997;-67
2023/01/19 09:42:26;;;;;;;1.52;0.90;;;11.60;71.80;;;;;;6215239;23;20004;-67
2023/01/19 09:44:53;;;;;;;1.50;1.20;;;11.60;71.80;;;;;;6213971;23;20411;-67
2023/01/19 09:47:22;;;;;;;1.25;0.90;;;11.70;71.90;;;;;;6189286;23;20011;-67
2023/01/19 09:49:57;;;;;;;1.63;1.00;;;11.70;71.90;;;;;;6189466;23;20001;-67
2023/01/19 09:52:23;;;;;;;1.65;1.10;;;11.60;71.80;;;;;;6213693;23;20035;-67
2023/01/19 09:54:53;;;;;;;1.10;1.00;;;11.70;71.90;;;;;;6188797;23;20348;-67
2023/01/19 09:57:20;;;;;;;1.50;1.17;;;11.70;71.90;;;;;;6214019;23;20023;-67
2023/01/19 09:59:48;;;;;;;2.42;1.23;;;11.60;71.90;;;;;;6213978;23;20005;-67
2023/01/19 10:02:47;;;;;;;2.30;1.13;;;11.70;71.90;;;;;;6189363;23;20096;-67
2023/01/19 10:05:47;;;;;;;2.58;1.50;;;11.60;71.80;;;;;;6213848;23;20035;-67
2023/01/19 10:08:47;;;;;;;2.35;1.20;;;11.70;71.90;;;;;;6214164;23;20008;-67
2023/01/19 10:11:28;;;;;;;1.55;1.30;;;11.70;71.90;;;;;;6192460;23;20005;-67
2023/01/19 10:13:53;;;;;;;1.83;1.33;;;11.60;71.80;;;;;;6190583;23;20019;-67
2023/01/19 10:16:56;;;;;;;2.20;1.20;;;11.70;71.90;;;;;;6188622;23;20075;-67
2023/01/19 10:19:28;;;;;;;2.33;1.40;;;11.70;72.00;;;;;;6192182;23;20005;-67
2023/01/19 10:21:54;;;;;;;1.53;1.33;;;11.70;72.00;;;;;;6188978;23;19997;-67
2023/01/19 10:24:51;;;;;;;2.53;1.50;;;11.70;71.90;;;;;;6188581;23;20016;-67
2023/01/19 10:27:17;;;;;;;2.58;1.40;;;11.60;71.90;;;;;;6188471;23;20070;-67
2023/01/19 10:29:43;;;;;;;1.42;1.00;;;11.70;71.90;;;;;;6213702;23;20008;-67
2023/01/19 10:32:12;;;;;;;2.03;1.35;;;11.70;72.00;;;;;;6188566;23;20314;-67
2023/01/19 10:34:38;;;;;;;2.28;1.67;;;11.60;72.00;;;;;;6189005;23;20004;-67
2023/01/19 10:37:33;;;;;;;1.73;1.38;;;11.70;72.00;;;;;;6213588;23;20455;-67
2023/01/19 10:40:07;;;;;;;2.05;1.20;;;11.60;71.90;;;;;;6197028;23;20026;-67
2023/01/19 10:42:33;;;;;;;2.30;1.42;;;11.70;72.00;;;;;;6214871;23;20020;-67
2023/01/19 10:44:59;;;;;;;2.63;1.40;;;11.70;72.00;;;;;;6213468;23;20314;-67
2023/01/19 10:47:33;;;;;;;2.55;1.52;;;11.70;71.90;;;;;;6213545;23;20075;-67
2023/01/19 10:49:59;;;;;;;2.60;1.65;;;11.70;72.00;;;;;;6213434;23;20067;-67
2023/01/19 10:52:32;;;;;;;2.72;1.70;;;11.70;72.00;;;;;;6213395;23;20441;-67
2023/01/19 10:54:59;;;;;;;3.13;1.67;;;11.70;71.90;;;;;;6189112;23;20024;-67
2023/01/19 10:57:28;;;;;;;2.28;1.60;;;11.70;72.00;;;;;;6188486;23;20001;-67
2023/01/19 10:59:54;;;;;;;2.25;1.40;;;11.60;72.00;;;;;;6188695;23;19997;-67
2023/01/19 11:02:20;;;;;;;1.90;1.48;;;11.70;72.00;;;;;;6213429;23;20023;-67
2023/01/19 11:04:48;;;;;;;1.77;1.50;;;11.70;72.00;;;;;;6213252;23;20003;-67
2023/01/19 11:07:21;;;;;;;1.95;1.50;;;11.60;71.90;;;;;;6188548;23;20001;-67
2023/01/19 11:09:47;;;;;;;3.00;1.52;;;11.60;71.90;;;;;;6212986;23;20005;-67
2023/01/19 11:12:22;;;;;;;2.35;1.65;;;11.70;72.00;;;;;;6213370;23;20008;-67
2023/01/19 11:14:48;;;;;;;3.58;1.90;;;11.70;72.00;;;;;;6214683;23;20005;-67
2023/01/19 11:17:24;;;;;;;3.45;1.40;;;11.70;72.00;;;;;;6213086;23;20004;-67
2023/01/19 11:20:00;;;;;;;4.45;1.80;;;11.70;72.00;;;;;;6188348;23;20007;-67
2023/01/19 11:22:28;;;;;;;2.15;1.58;;;11.60;71.90;;;;;;6213014;23;20348;-66
2023/01/19 11:24:59;;;;;;;2.83;1.73;;;11.70;72.00;;;;;;6214634;23;20021;-67
2023/01/19 11:27:25;;;;;;;4.15;1.80;;;11.70;72.00;;;;;;6213234;23;20008;-66
2023/01/19 11:30:06;;;;;;;2.95;1.73;;;11.70;72.00;;;;;;6188233;23;20031;-67
2023/01/19 11:32:35;;;;;;;3.78;1.70;;;11.70;72.00;;;;;;6165652;23;20088;-66
2023/01/19 11:35:03;;;;;;;3.53;1.85;;;11.60;72.00;;;;;;6213287;23;20033;-67
2023/01/19 11:37:30;;;;;;;1.85;1.42;;;11.70;72.00;;;;;;6188122;23;20437;-67
2023/01/19 11:39:57;;;;;;;3.15;1.65;;;11.70;72.00;;;;;;6212803;23;20003;-67
2023/01/19 11:42:23;;;;;;;2.33;1.80;;;11.70;72.00;;;;;;6188259;23;20001;-67
2023/01/19 11:45:05;;;;;;;2.03;1.50;;;11.70;72.00;;;;;;6188377;23;20028;-67
2023/01/19 11:47:43;;;;;;;1.60;1.50;;;11.70;72.00;;;;;;6213468;23;20080;-67
2023/01/19 11:50:22;;;;;;;2.53;1.73;;;11.70;72.00;;;;;;6214697;23;20080;-67
2023/01/19 11:53:09;;;;;;;2.78;1.80;;;11.70;72.00;;;;;;6212888;23;20005;-67
2023/01/19 11:56:03;;;;;;;2.30;1.83;;;11.60;72.00;;;;;;6214699;23;20067;-67
2023/01/19 11:58:29;;;;;;;2.20;1.42;;;11.70;72.00;;;;;;6208456;23;20005;-67
2023/01/19 12:01:23;;;;;;;3.40;1.98;;;11.70;72.00;;;;;;6188377;23;20326;-67
2023/01/19 12:04:13;;;;;;;1.58;1.40;;;11.60;72.00;;;;;;6213047;23;20020;-67
2023/01/19 12:06:46;;;;;;;3.00;1.60;;;11.70;72.00;;;;;;6213037;23;20056;-67
2023/01/19 12:09:19;;;;;;;2.42;1.45;;;11.70;72.10;;;;;;6189316;23;20000;-67
2023/01/19 12:12:00;;;;;;;2.88;1.50;;;11.70;72.50;;;;;;6213222;23;20000;-67
2023/01/19 12:14:30;;;;;;;3.60;1.92;;;11.70;72.00;;;;;;6212992;23;20452;-67
2023/01/19 12:16:58;;;;;;;2.30;1.77;;;11.60;72.00;;;;;;6189533;23;20054;-67
2023/01/19 12:19:51;;;;;;;2.45;1.60;;;11.70;72.00;;;;;;6190056;23;19997;-67
2023/01/19 12:22:17;;;;;;;2.53;1.48;;;11.70;72.00;;;;;;6214638;23;20071;-67
2023/01/19 12:24:47;;;;;;;2.60;1.58;;;11.60;72.00;;;;;;6189794;23;20044;-67
2023/01/19 12:27:19;;;;;;;2.38;1.63;;;11.70;72.00;;;;;;6190037;23;20009;-67
2023/01/19 12:29:45;;;;;;;1.60;1.42;;;11.70;72.20;;;;;;6190568;23;20011;-67
2023/01/19 12:32:16;;;;;;;2.13;1.85;;;11.70;72.00;;;;;;6214938;23;20024;-67
2023/01/19 12:34:42;;;;;;;2.28;1.60;;;11.70;72.00;;;;;;6214809;23;20062;-67
2023/01/19 12:37:30;;;;;;;1.92;1.35;;;11.70;72.00;;;;;;6189308;23;20008;-67
2023/01/19 12:40:01;;;;;;;1.77;1.50;;;11.70;72.00;;;;;;6190370;23;20004;-67
2023/01/19 12:42:27;;;;;;;3.13;1.40;;;11.70;72.00;;;;;;6190683;23;20437;-67
2023/01/19 12:45:13;;;;;;;1.80;1.52;;;11.70;72.00;;;;;;6189661;23;20000;-67
2023/01/19 12:47:39;;;;;;;2.28;1.58;;;11.70;72.10;;;;;;6214641;23;20000;-67
2023/01/19 12:50:06;;;;;;;2.00;1.65;;;11.70;72.10;;;;;;6189753;23;20012;-67
2023/01/19 12:52:39;;;;;;;1.88;1.27;;;11.70;72.10;;;;;;6214247;23;20012;-67
2023/01/19 12:55:14;;;;;;;2.13;1.33;;;11.70;72.00;;;;;;6191113;23;20005;-67
2023/01/19 12:57:57;;;;;;;1.58;1.35;;;11.70;72.00;;;;;;6216040;23;20078;-67
2023/01/19 13:00:23;;;;;;;;;;;11.70;72.00;;;;;;6215007;23;20003;-67
2023/01/19 13:02:48;;;;;;;2.63;1.60;;;11.70;72.00;;;;;;6216068;23;19900;-67
2023/01/19 13:05:38;;;;;;;2.28;1.45;;;11.70;72.10;;;;;;6215676;23;20004;-67
2023/01/19 13:08:05;;;;;;;2.53;1.50;;;11.70;72.10;;;;;;6215909;23;19997;-67